Portland Mills, Pennsylvania
Current Conditions -  °F | °C
As of 2:53 AM on Tuesday 27 Jan 2015 (Local Time) from KDUJ Reporting Station
Few Clouds Few Clouds  
Wind Chill:   Ceiling: Unl
Heat Index: 14°   Visibility: 10mi
Dew Point: 11°   Wind: 5mph
Humidity: 88%   Direction: 320°NW
Pressure: 29.75"   Gusts: NA
Location:  41.4397°N, 78.7326°W
Report Text: KDUJ 270753Z AUTO 32004KT 10SM FEW120 M10/M12 A2975 RMK AO2 SLP101 T11001117
Loading
Personal Weather Stations






























Interactive Weather Map New forecast layout! Learn more

10-Day Weather Forecast

Advertisements
Track Severe Weather on mobile